Time;durP1;ratioP1;P1;durP2;ratioP2;P2;SDS_P1;SDS_P2;PMS_P1;PMS_P2;Temp;Humidity;BMP_temperature;BMP_pressure;BME280_temperature;BME280_humidity;BME280_pressure;Samples;Min_cycle;Max_cycle;Signal;HPM_P1;HPM_P2
2022/12/26 00:01:38;;;;;;;39.83;19.00;;;10.00;99.90;;;;;;5002289;28;20037;-83
2022/12/26 00:04:04;;;;;;;42.97;18.77;;;10.00;99.90;;;;;;5034830;28;20474;-82
2022/12/26 00:06:31;;;;;;;37.93;18.20;;;10.00;99.90;;;;;;5034568;28;20041;-83
2022/12/26 00:08:58;;;;;;;42.47;20.73;;;10.00;99.90;;;;;;5036104;28;20030;-83
2022/12/26 00:11:25;;;;;;;44.00;19.67;;;10.00;99.90;;;;;;5034864;28;20481;-83
2022/12/26 00:14:05;;;;;;;48.97;20.57;;;10.00;99.90;;;;;;5036554;28;20029;-83
2022/12/26 00:16:31;;;;;;;52.33;22.53;;;10.00;99.90;;;;;;5034348;28;20052;-83
2022/12/26 00:18:57;;;;;;;54.40;20.93;;;10.00;99.90;;;;;;5034438;28;20374;-83
2022/12/26 00:21:26;;;;;;;50.77;21.60;;;10.00;99.90;;;;;;5034216;28;20112;-83
2022/12/26 00:23:52;;;;;;;55.43;22.70;;;10.00;99.90;;;;;;5018640;28;20026;-83
2022/12/26 00:26:20;;;;;;;58.07;23.83;;;10.00;99.90;;;;;;5035389;28;20041;-83
2022/12/26 00:28:47;;;;;;;51.47;22.67;;;10.00;99.90;;;;;;5034462;28;20382;-82
2022/12/26 00:31:22;;;;;;;58.93;24.13;;;10.00;99.90;;;;;;5036018;28;20080;-83
2022/12/26 00:33:48;;;;;;;51.90;22.23;;;10.00;99.90;;;;;;5035130;28;20021;-83
2022/12/26 00:36:22;;;;;;;55.90;23.23;;;10.00;99.90;;;;;;5017069;28;20092;-83
2022/12/26 00:38:49;;;;;;;54.10;22.43;;;10.00;99.90;;;;;;5034549;28;20034;-83
2022/12/26 00:41:17;;;;;;;55.03;22.50;;;10.00;99.90;;;;;;5035639;28;20471;-83
2022/12/26 00:43:43;;;;;;;46.93;19.73;;;10.00;99.90;;;;;;5034651;28;20398;-84
2022/12/26 00:46:09;;;;;;;45.13;19.87;;;10.00;99.90;;;;;;5034209;28;20040;-84
2022/12/26 00:48:35;;;;;;;52.83;21.33;;;10.10;99.90;;;;;;5035473;28;20036;-84
2022/12/26 00:51:00;;;;;;;44.53;20.40;;;10.10;99.90;;;;;;5017153;28;20029;-82
2022/12/26 00:53:26;;;;;;;40.33;20.30;;;10.10;99.90;;;;;;5035511;28;20025;-82
2022/12/26 00:55:53;;;;;;;44.90;22.03;;;10.10;99.90;;;;;;5033942;28;20053;-84
2022/12/26 00:58:20;;;;;;;44.93;21.93;;;10.10;99.90;;;;;;5033748;28;20071;-82
2022/12/26 01:00:46;;;;;;;44.60;21.33;;;10.10;99.90;;;;;;5001271;28;20040;-82
2022/12/26 01:03:12;;;;;;;43.33;20.90;;;10.10;99.90;;;;;;5017870;28;20493;-84
2022/12/26 01:05:43;;;;;;;48.03;23.60;;;10.20;99.90;;;;;;5034254;28;20044;-84
2022/12/26 01:08:09;;;;;;;48.80;24.10;;;10.10;99.90;;;;;;5034264;28;20069;-83
2022/12/26 01:10:35;;;;;;;55.43;27.27;;;10.20;99.90;;;;;;5035040;28;20438;-83
2022/12/26 01:13:01;;;;;;;47.17;23.87;;;10.10;99.90;;;;;;5035148;28;20095;-84
2022/12/26 01:15:27;;;;;;;46.03;26.07;;;10.10;99.90;;;;;;5035385;28;20056;-84
2022/12/26 01:17:53;;;;;;;51.23;24.77;;;10.10;99.90;;;;;;5017993;28;20049;-84
2022/12/26 01:20:18;;;;;;;50.27;25.17;;;10.20;99.90;;;;;;5018169;28;20564;-85
2022/12/26 01:22:44;;;;;;;48.17;24.93;;;10.10;99.90;;;;;;5034630;28;20389;-84
2022/12/26 01:25:11;;;;;;;44.13;23.17;;;10.10;99.90;;;;;;5034431;28;20104;-83
2022/12/26 01:27:36;;;;;;;46.97;24.13;;;10.10;99.90;;;;;;5033466;28;20062;-83
2022/12/26 01:30:03;;;;;;;48.33;22.40;;;10.10;99.90;;;;;;5016400;28;20569;-83
2022/12/26 01:32:28;;;;;;;41.17;21.20;;;10.20;99.90;;;;;;5034656;28;20504;-82
2022/12/26 01:34:55;;;;;;;41.57;23.47;;;10.20;99.90;;;;;;5034410;28;20049;-83
2022/12/26 01:37:22;;;;;;;41.43;21.97;;;10.10;99.90;;;;;;5033327;28;20116;-82
2022/12/26 01:39:48;;;;;;;43.70;21.93;;;10.20;99.90;;;;;;5016703;28;20029;-82
2022/12/26 01:42:16;;;;;;;38.83;21.87;;;10.20;99.90;;;;;;5016540;28;20076;-83
2022/12/26 01:44:58;;;;;;;37.70;20.13;;;10.20;99.90;;;;;;5032857;28;20047;-83
2022/12/26 01:47:35;;;;;;;38.77;21.10;;;10.10;99.90;;;;;;5034272;28;20046;-83
2022/12/26 01:50:01;;;;;;;38.83;21.53;;;10.10;99.90;;;;;;5032395;28;20026;-81
2022/12/26 01:52:29;;;;;;;37.83;20.10;;;10.10;99.90;;;;;;5033809;28;20025;-80
2022/12/26 01:54:55;;;;;;;35.40;20.90;;;10.10;99.90;;;;;;5032609;28;20035;-81
2022/12/26 01:57:33;;;;;;;32.63;18.53;;;10.10;99.90;;;;;;5016246;28;20455;-83
2022/12/26 02:00:00;;;;;;;37.67;20.03;;;10.00;99.90;;;;;;5034287;28;20036;-82
2022/12/26 02:02:28;;;;;;;36.43;21.13;;;10.10;99.90;;;;;;5033472;28;20033;-82
2022/12/26 02:07:44;;;;;;;36.60;20.93;;;10.00;99.90;;;;;;5033566;28;20460;-82
2022/12/26 02:10:22;;;;;;;38.57;21.97;;;10.00;99.90;;;;;;5033920;28;20026;-82
2022/12/26 02:12:49;;;;;;;35.33;21.17;;;10.10;99.90;;;;;;5033546;28;20033;-84
2022/12/26 02:15:16;;;;;;;37.87;21.80;;;10.10;99.90;;;;;;5033272;28;20029;-83
2022/12/26 02:17:42;;;;;;;39.27;20.93;;;10.00;99.90;;;;;;5032604;28;20040;-83
2022/12/26 02:20:26;;;;;;;36.63;22.27;;;10.10;99.90;;;;;;5015974;28;20022;-83
2022/12/26 02:23:11;;;;;;;;;;;10.00;99.90;;;;;;5032824;28;20035;-84
2022/12/26 02:25:54;;;;;;;28.35;16.25;;;10.00;99.90;;;;;;5048933;28;20407;-83
2022/12/26 02:28:45;;;;;;;35.15;20.65;;;10.00;99.90;;;;;;5048496;28;20045;-84
2022/12/26 02:31:32;;;;;;;34.53;19.83;;;10.00;99.90;;;;;;5032912;28;20029;-85
2022/12/26 02:34:15;;;;;;;37.63;22.50;;;10.00;99.90;;;;;;5033688;28;20034;-85
2022/12/26 02:36:53;;;;;;;38.50;22.43;;;10.00;99.90;;;;;;5032335;28;20029;-84
2022/12/26 02:39:44;;;;;;;37.33;22.70;;;10.00;99.90;;;;;;5033494;28;20484;-84
2022/12/26 02:42:29;;;;;;;35.10;22.70;;;10.00;99.90;;;;;;5033902;28;20061;-86
2022/12/26 02:48:11;;;;;;;40.03;23.83;;;10.00;99.90;;;;;;5033366;28;20044;-86
2022/12/26 03:14:57;;;;;;;42.90;25.43;;;9.80;99.90;;;;;;5033570;28;20448;-86
2022/12/26 03:17:42;;;;;;;39.00;25.38;;;9.80;99.90;;;;;;5033800;28;20025;-84
2022/12/26 03:20:15;;;;;;;35.70;23.07;;;9.80;99.90;;;;;;5033291;28;20044;-85
2022/12/26 03:22:54;;;;;;;35.13;23.20;;;9.80;99.90;;;;;;5032589;28;20123;-86
2022/12/26 03:28:20;;;;;;;32.87;21.90;;;9.70;99.90;;;;;;5025308;28;20551;-85
2022/12/26 03:30:49;;;;;;;39.30;24.80;;;9.70;99.90;;;;;;5031755;28;20468;-85
2022/12/26 03:36:38;;;;;;;37.17;24.63;;;9.70;99.90;;;;;;5033380;28;20048;-86
2022/12/26 04:20:48;;;;;;;49.60;32.15;;;9.80;99.90;;;;;;5036096;28;20080;-83
2022/12/26 04:46:35;;;;;;;43.23;29.27;;;9.90;99.90;;;;;;5035943;28;20121;-85
2022/12/26 04:51:50;;;;;;;36.33;26.63;;;9.80;99.90;;;;;;5035507;28;20187;-85
2022/12/26 04:54:16;;;;;;;37.50;27.03;;;9.90;99.90;;;;;;5029660;28;20033;-84
2022/12/26 04:56:41;;;;;;;37.10;27.33;;;9.80;99.90;;;;;;5020330;28;20038;-83
2022/12/26 04:59:07;;;;;;;41.43;27.70;;;9.80;99.90;;;;;;5002087;28;20030;-85
2022/12/26 05:09:51;;;;;;;32.77;22.40;;;9.70;99.90;;;;;;5035296;28;20040;-84
2022/12/26 05:12:16;;;;;;;32.33;23.57;;;9.70;99.90;;;;;;5035278;28;20431;-84
2022/12/26 05:14:42;;;;;;;31.80;22.53;;;9.70;99.90;;;;;;5050206;28;20033;-84
2022/12/26 05:30:56;;;;;;;25.23;18.83;;;9.60;99.90;;;;;;5035122;28;20450;-85
2022/12/26 05:36:07;;;;;;;;;;;9.60;99.90;;;;;;5035563;28;20060;-85
2022/12/26 05:38:33;;;;;;;;;;;9.60;99.90;;;;;;5040142;28;19909;-84
2022/12/26 05:40:58;;;;;;;;;;;9.60;99.90;;;;;;5035770;28;19909;-85
2022/12/26 05:43:23;;;;;;;;;;;9.50;99.90;;;;;;5033918;28;19917;-85
2022/12/26 05:45:49;;;;;;;;;;;9.50;99.90;;;;;;5035122;28;19909;-85
2022/12/26 05:48:14;;;;;;;;;;;9.50;99.90;;;;;;5060102;28;19924;-82
2022/12/26 05:50:40;;;;;;;;;;;9.50;99.90;;;;;;5022901;28;19909;-84
2022/12/26 05:53:05;;;;;;;;;;;9.60;99.90;;;;;;5033502;28;19913;-84
2022/12/26 05:55:31;;;;;;;;;;;9.50;99.90;;;;;;5034729;28;20406;-84
2022/12/26 05:57:58;;;;;;;;;;;9.50;99.90;;;;;;5035441;28;19928;-85
2022/12/26 06:00:23;;;;;;;;;;;9.50;99.90;;;;;;5034195;28;19905;-85
2022/12/26 06:02:49;;;;;;;;;;;9.50;99.90;;;;;;5017131;28;19915;-85
2022/12/26 06:05:14;;;;;;;;;;;9.50;99.90;;;;;;5034221;28;19948;-84
2022/12/26 06:07:40;;;;;;;;;;;9.50;99.90;;;;;;5033366;28;19983;-84
2022/12/26 06:10:06;;;;;;;;;;;9.50;99.90;;;;;;5034843;28;19912;-84
2022/12/26 06:12:32;;;;;;;;;;;9.50;99.90;;;;;;5049827;28;19913;-84
2022/12/26 06:14:58;;;;;;;;;;;9.50;99.90;;;;;;5033164;28;19905;-84
2022/12/26 06:17:23;;;;;;;;;;;9.40;99.90;;;;;;5033418;28;19912;-84
2022/12/26 06:19:49;;;;;;;;;;;9.40;99.90;;;;;;5033778;28;19909;-84
2022/12/26 06:22:14;;;;;;;;;;;9.40;99.90;;;;;;5034642;28;19905;-84
2022/12/26 06:24:40;;;;;;;;;;;9.40;99.90;;;;;;5033085;28;20269;-84
2022/12/26 06:27:05;;;;;;;;;;;9.40;99.90;;;;;;5016146;28;19921;-84
2022/12/26 06:29:31;;;;;;;;;;;9.40;99.90;;;;;;5033162;28;19916;-86
2022/12/26 06:31:56;;;;;;;;;;;9.40;99.90;;;;;;5033656;28;20261;-85
2022/12/26 06:34:22;;;;;;;;;;;9.30;99.90;;;;;;5033321;28;19917;-86
2022/12/26 06:36:47;;;;;;;;;;;9.30;99.90;;;;;;5034536;28;19951;-86
2022/12/26 06:39:13;;;;;;;;;;;9.30;99.90;;;;;;5016545;28;19913;-83
2022/12/26 06:41:38;;;;;;;;;;;9.30;99.90;;;;;;5033639;28;19920;-85
2022/12/26 06:44:04;;;;;;;;;;;9.30;99.90;;;;;;5034334;28;19927;-85
2022/12/26 06:46:29;;;;;;;;;;;9.20;99.90;;;;;;5016324;28;20049;-85
2022/12/26 06:48:55;;;;;;;;;;;9.20;99.90;;;;;;5049496;28;20317;-85
2022/12/26 06:51:24;;;;;;;;;;;9.20;99.90;;;;;;5033606;28;19905;-85
2022/12/26 06:53:50;;;;;;;;;;;9.20;99.90;;;;;;5033204;28;19908;-84
2022/12/26 06:56:17;;;;;;;;;;;9.20;99.90;;;;;;5016288;28;20048;-84
2022/12/26 06:58:43;;;;;;;;;;;9.20;99.90;;;;;;5033940;28;19999;-84
2022/12/26 07:01:13;;;;;;;;;;;9.10;99.90;;;;;;5034152;28;20403;-84
2022/12/26 07:03:39;;;;;;;;;;;9.10;99.90;;;;;;5032326;28;20368;-84
2022/12/26 07:06:05;;;;;;;;;;;9.10;99.90;;;;;;5032330;28;19905;-84
2022/12/26 07:08:31;;;;;;;;;;;9.10;99.90;;;;;;5033298;28;19913;-85
2022/12/26 07:10:56;;;;;;;;;;;9.10;99.90;;;;;;5049252;28;19963;-84
2022/12/26 07:13:22;;;;;;;;;;;9.10;99.90;;;;;;5033591;28;19951;-84
2022/12/26 07:15:47;;;;;;;;;;;9.10;99.90;;;;;;5033584;28;19913;-84
2022/12/26 07:18:13;;;;;;;;;;;9.10;99.90;;;;;;5048985;28;20400;-84
2022/12/26 07:20:38;;;;;;;;;;;9.10;99.90;;;;;;5033664;28;19951;-83
2022/12/26 07:23:04;;;;;;;;;;;9.10;99.90;;;;;;5016049;28;19909;-85
2022/12/26 07:25:29;;;;;;;;;;;9.00;99.90;;;;;;5033395;28;20269;-82
2022/12/26 07:27:55;;;;;;;;;;;9.00;99.90;;;;;;5033465;28;20383;-84
2022/12/26 07:30:20;;;;;;;;;;;9.00;99.90;;;;;;5033267;28;19916;-84
2022/12/26 07:32:46;;;;;;;;;;;9.00;99.90;;;;;;5048710;28;19952;-84
2022/12/26 07:35:11;;;;;;;;;;;9.10;99.90;;;;;;5033427;28;19991;-84
2022/12/26 07:37:37;;;;;;;;;;;9.10;99.90;;;;;;5016320;28;19909;-84
2022/12/26 07:40:03;;;;;;;;;;;9.10;99.90;;;;;;5033612;28;19913;-84
2022/12/26 07:42:28;;;;;;;;;;;9.10;99.90;;;;;;5048574;28;20380;-84
2022/12/26 07:44:54;;;;;;;;;;;9.10;99.90;;;;;;5048330;28;19920;-84
2022/12/26 07:47:19;;;;;;;;;;;9.10;99.90;;;;;;5017597;28;20300;-84
2022/12/26 07:49:45;;;;;;;;;;;9.10;99.90;;;;;;5036981;28;19913;-84
2022/12/26 07:52:10;;;;;;;;;;;9.10;99.90;;;;;;5019238;28;19913;-84
2022/12/26 07:54:36;;;;;;;;;;;9.10;99.90;;;;;;5036781;28;19912;-84
2022/12/26 07:57:01;;;;;;;;;;;9.10;99.90;;;;;;5035030;28;20357;-84
2022/12/26 07:59:27;;;;;;;;;;;9.10;99.90;;;;;;5019170;28;19916;-84
2022/12/26 08:01:52;;;;;;;;;;;9.10;99.90;;;;;;5052146;28;19974;-84
2022/12/26 08:04:18;;;;;;;;;;;9.10;99.90;;;;;;5035946;28;19967;-84
2022/12/26 08:06:44;;;;;;;;;;;9.10;99.90;;;;;;5035284;28;20392;-82
2022/12/26 08:09:16;;;;;;;;;;;9.10;99.90;;;;;;5035078;28;20373;-85
2022/12/26 08:11:42;;;;;;;;;;;9.20;99.90;;;;;;5035540;28;19935;-85
2022/12/26 08:14:12;;;;;;;;;;;9.20;99.90;;;;;;5036294;28;19912;-84
2022/12/26 08:16:37;;;;;;;;;;;9.20;99.90;;;;;;5035253;28;19967;-84
2022/12/26 08:19:03;;;;;;;;;;;9.30;99.90;;;;;;5036584;28;19909;-84
2022/12/26 08:21:28;;;;;;;;;;;9.30;99.90;;;;;;5036303;28;20281;-84
2022/12/26 08:23:54;;;;;;;;;;;9.40;99.90;;;;;;5051596;28;20376;-84
2022/12/26 08:26:21;;;;;;;;;;;9.40;99.90;;;;;;5018636;28;19917;-83
2022/12/26 08:28:47;;;;;;;;;;;9.50;99.90;;;;;;5051749;28;20369;-82
2022/12/26 08:31:13;;;;;;;;;;;9.50;99.90;;;;;;5035389;28;19909;-85
2022/12/26 08:33:39;;;;;;;;;;;9.60;99.90;;;;;;5036638;28;19951;-85
2022/12/26 08:36:06;;;;;;;;;;;9.70;99.90;;;;;;5035998;28;20257;-84
2022/12/26 08:38:31;;;;;;;;;;;9.70;99.90;;;;;;5049507;28;19931;-85
2022/12/26 08:40:57;;;;;;;;;;;9.60;99.90;;;;;;5053373;28;19904;-85
2022/12/26 08:43:23;;;;;;;;;;;9.70;99.90;;;;;;5034601;28;19921;-83
2022/12/26 08:45:59;;;;;;;;;;;9.70;99.90;;;;;;5046648;28;19909;-84
2022/12/26 08:48:24;;;;;;;;;;;9.70;99.90;;;;;;5038901;28;19916;-85
2022/12/26 08:51:00;;;;;;;;;;;9.70;99.90;;;;;;5018896;28;19909;-84
2022/12/26 08:53:27;;;;;;;;;;;9.70;99.90;;;;;;5035944;28;19919;-84
2022/12/26 08:55:53;;;;;;;;;;;9.70;99.90;;;;;;5051622;28;20260;-85
2022/12/26 08:58:19;;;;;;;;;;;9.80;99.90;;;;;;5033865;28;19909;-82
2022/12/26 09:00:45;;;;;;;;;;;9.80;99.90;;;;;;5036261;28;19905;-84
2022/12/26 09:03:10;;;;;;;;;;;9.80;99.90;;;;;;5035966;28;19914;-84
2022/12/26 09:05:36;;;;;;;;;;;9.90;99.90;;;;;;5035172;28;19915;-85
2022/12/26 09:08:01;;;;;;;;;;;9.90;99.90;;;;;;5050922;28;19917;-84
2022/12/26 09:10:27;;;;;;;;;;;9.90;99.90;;;;;;5051905;28;20368;-84
2022/12/26 09:12:52;;;;;;;;;;;10.00;99.90;;;;;;5034495;28;19948;-84
2022/12/26 09:15:18;;;;;;;;;;;10.00;99.90;;;;;;5034186;28;20353;-84
2022/12/26 09:17:43;;;;;;;;;;;10.10;99.90;;;;;;5027188;28;20007;-84
2022/12/26 09:20:09;;;;;;;;;;;10.20;99.90;;;;;;5028076;28;19909;-85
2022/12/26 09:22:50;;;;;;;;;;;10.20;99.90;;;;;;5027142;28;19913;-85
2022/12/26 09:25:16;;;;;;;;;;;10.30;99.90;;;;;;5048741;28;20327;-85
2022/12/26 09:27:42;;;;;;;;;;;10.30;99.90;;;;;;5031986;28;19917;-85
2022/12/26 09:30:07;;;;;;;;;;;10.30;99.90;;;;;;5048733;28;19995;-84
2022/12/26 09:32:33;;;;;;;;;;;10.30;99.90;;;;;;5031771;28;19910;-83
2022/12/26 09:34:59;;;;;;;;;;;10.40;99.90;;;;;;5027212;28;19905;-83
2022/12/26 09:37:24;;;;;;;;;;;10.40;99.90;;;;;;5027014;28;19917;-83
2022/12/26 09:39:50;;;;;;;;;;;10.50;99.90;;;;;;5028693;28;20281;-83
2022/12/26 09:42:25;;;;;;;;;;;10.50;99.90;;;;;;5047095;28;19988;-85
2022/12/26 09:45:20;;;;;;;;;;;10.50;99.90;;;;;;5042395;28;19956;-84
2022/12/26 09:48:08;;;;;;;;;;;10.60;99.90;;;;;;5026402;28;19924;-84
2022/12/26 09:50:36;;;;;;;;;;;10.50;99.90;;;;;;5033881;28;20360;-83
2022/12/26 09:53:06;;;;;;;;;;;10.50;99.90;;;;;;5019335;28;19992;-85
2022/12/26 09:55:50;;;;;;;;;;;10.50;99.90;;;;;;5014845;28;19941;-82
2022/12/26 09:58:29;;;;;;;;;;;10.40;99.90;;;;;;5037901;28;20345;-83
2022/12/26 10:01:09;;;;;;;;;;;10.40;99.90;;;;;;5028209;28;20365;-83
2022/12/26 10:03:42;;;;;;;;;;;10.30;99.90;;;;;;5031482;28;19909;-82
2022/12/26 10:06:11;;;;;;;;;;;10.30;99.90;;;;;;5031139;28;19905;-82
2022/12/26 10:08:44;;;;;;;;;;;10.30;99.90;;;;;;5030899;28;19915;-82
2022/12/26 10:11:30;;;;;;;;;;;10.30;99.90;;;;;;5032103;28;19905;-82
2022/12/26 10:13:58;;;;;;;;;;;10.20;99.90;;;;;;5031389;28;20376;-82
2022/12/26 10:16:42;;;;;;;;;;;10.10;99.90;;;;;;5032117;28;20337;-82
2022/12/26 10:19:31;;;;;;;;;;;10.10;99.90;;;;;;5049318;28;19904;-83
2022/12/26 10:21:57;;;;;;;;;;;9.90;99.90;;;;;;5013778;28;19905;-83
2022/12/26 10:24:24;;;;;;;;;;;9.90;99.90;;;;;;5049905;28;19912;-82
2022/12/26 10:26:51;;;;;;;;;;;9.80;99.90;;;;;;5032731;28;19913;-83
2022/12/26 10:29:37;;;;;;;;;;;9.80;99.90;;;;;;5032770;28;20003;-83
2022/12/26 10:32:10;;;;;;;;;;;9.80;99.90;;;;;;5032045;28;19911;-83
2022/12/26 10:34:39;;;;;;;;;;;9.90;99.90;;;;;;5032938;28;19908;-83
2022/12/26 10:37:24;;;;;;;;;;;9.80;99.90;;;;;;5032872;28;20416;-83
2022/12/26 10:39:53;;;;;;;;;;;9.80;99.90;;;;;;5049024;28;19951;-83
2022/12/26 10:42:39;;;;;;;;;;;9.80;99.90;;;;;;5033814;28;20427;-83
2022/12/26 10:45:18;;;;;;;;;;;9.80;99.90;;;;;;5032157;28;19924;-83
2022/12/26 10:47:45;;;;;;;;;;;9.80;99.90;;;;;;5032366;28;19983;-83
2022/12/26 10:50:27;;;;;;;;;;;9.80;99.90;;;;;;5032083;28;19913;-82
2022/12/26 10:52:54;;;;;;;;;;;9.70;99.90;;;;;;5032397;28;19906;-83
2022/12/26 10:55:22;;;;;;;;;;;9.70;99.90;;;;;;5032597;28;19905;-84
2022/12/26 10:57:50;;;;;;;;;;;9.70;99.90;;;;;;5032278;28;20341;-84
2022/12/26 11:00:20;;;;;;;;;;;9.70;99.90;;;;;;5034254;28;19905;-83
2022/12/26 11:03:00;;;;;;;;;;;9.60;99.90;;;;;;5032561;28;19928;-84
2022/12/26 11:05:25;;;;;;;;;;;9.50;99.90;;;;;;5033591;28;19909;-83
2022/12/26 11:07:53;;;;;;;;;;;9.40;99.90;;;;;;5033219;28;20285;-83
2022/12/26 11:10:27;;;;;;;;;;;9.40;99.90;;;;;;5032199;28;19905;-83
2022/12/26 11:12:54;;;;;;;;;;;9.40;99.90;;;;;;5033636;28;19912;-84
2022/12/26 11:15:30;;;;;;;;;;;9.30;99.90;;;;;;5032084;28;19905;-84
2022/12/26 11:18:06;;;;;;;;;;;9.30;99.90;;;;;;5032395;28;20253;-84
2022/12/26 11:20:32;;;;;;;;;;;9.30;99.90;;;;;;5031773;28;19905;-83
2022/12/26 11:23:27;;;;;;;;;;;9.20;99.90;;;;;;5052360;28;19909;-83
2022/12/26 11:25:57;;;;;;;;;;;9.20;99.90;;;;;;5033216;28;19905;-83
2022/12/26 11:28:26;;;;;;;;;;;9.20;99.90;;;;;;5037184;28;20015;-83
2022/12/26 11:30:51;;;;;;;;;;;9.10;99.90;;;;;;5037816;28;19951;-82
2022/12/26 11:33:19;;;;;;;;;;;9.10;99.90;;;;;;5037308;28;19912;-85
2022/12/26 11:36:05;;;;;;;;;;;9.20;99.90;;;;;;5037524;28;19906;-84
2022/12/26 11:38:35;;;;;;;;;;;9.40;99.90;;;;;;5028599;28;20007;-83
2022/12/26 11:43:55;;;;;;;;;;;9.50;99.90;;;;;;5037838;28;19939;-83
2022/12/26 11:46:21;;;;;;;;;;;9.60;99.10;;;;;;5037406;28;19905;-83
2022/12/26 11:48:50;;;;;;;;;;;9.50;99.10;;;;;;5035799;28;20051;-82
2022/12/26 11:51:15;;;;;;;;;;;9.40;98.80;;;;;;5035475;28;20360;-83
2022/12/26 11:53:41;;;;;;;;;;;9.40;98.10;;;;;;5037158;28;19916;-83
2022/12/26 11:56:07;;;;;;;;;;;9.40;97.20;;;;;;5052438;28;19913;-84
2022/12/26 11:58:33;;;;;;;;;;;9.40;96.40;;;;;;5052708;28;20372;-83
2022/12/26 12:00:59;;;;;;;;;;;9.40;95.90;;;;;;5036167;28;19905;-83
2022/12/26 12:03:27;;;;;;;;;;;9.30;96.00;;;;;;5052325;28;20353;-83
2022/12/26 12:06:11;;;;;;;;;;;9.40;96.40;;;;;;5037056;28;19940;-83
2022/12/26 12:08:43;;;;;;;;;;;9.40;96.20;;;;;;5052158;28;19913;-84
2022/12/26 12:11:38;;;;;;;;;;;9.30;95.60;;;;;;5052900;28;19905;-83
2022/12/26 12:14:32;;;;;;;;;;;9.40;95.20;;;;;;5031691;28;19905;-82
2022/12/26 12:17:20;;;;;;;;;;;9.40;94.80;;;;;;5031333;28;20015;-82
2022/12/26 12:19:49;;;;;;;;;;;9.40;94.60;;;;;;5036092;28;19956;-84
2022/12/26 12:22:14;;;;;;;;;;;9.50;94.40;;;;;;5036856;28;19950;-83
2022/12/26 12:25:03;;;;;;;;;;;9.60;94.50;;;;;;5036659;28;19995;-83
2022/12/26 12:27:39;;;;;;;;;;;9.70;94.50;;;;;;5036469;28;19920;-83
2022/12/26 12:30:11;;;;;;;;;;;9.80;94.20;;;;;;5035058;28;19908;-83
2022/12/26 12:32:49;;;;;;;;;;;9.90;93.80;;;;;;5035374;28;19905;-83
2022/12/26 12:35:27;;;;;;;;;;;9.90;92.70;;;;;;5051562;28;20345;-84
2022/12/26 12:38:16;;;;;;;;;;;9.80;92.20;;;;;;5034546;28;19909;-83
2022/12/26 12:40:45;;;;;;;;;;;9.80;92.70;;;;;;5033055;28;19909;-83
2022/12/26 12:43:16;;;;;;;;;;;9.80;92.60;;;;;;5051236;28;19923;-83
2022/12/26 12:45:48;;;;;;;;;;;9.70;92.20;;;;;;5035764;28;19909;-83
2022/12/26 12:48:32;;;;;;;;;;;9.60;91.70;;;;;;5051399;28;19917;-83
2022/12/26 12:51:07;;;;;;;;;;;9.70;92.60;;;;;;5035228;28;19974;-83
2022/12/26 12:53:42;;;;;;;;;;;10.00;93.30;;;;;;5030281;28;19914;-83
2022/12/26 12:56:16;;;;;;;;;;;10.30;92.70;;;;;;5015242;28;20270;-82
2022/12/26 12:58:48;;;;;;;;;;;10.60;92.90;;;;;;5015435;28;19905;-83
2022/12/26 13:01:25;;;;;;;;;;;10.70;91.90;;;;;;5014428;28;19912;-83
2022/12/26 13:03:52;;;;;;;;;;;10.80;91.50;;;;;;5014205;28;20093;-82
2022/12/26 13:06:21;;;;;;;;;;;10.70;91.00;;;;;;5014236;28;19905;-83
2022/12/26 13:09:09;;;;;;;;;;;10.60;90.30;;;;;;5014781;28;20357;-83
2022/12/26 13:11:37;;;;;;;;;;;10.50;90.50;;;;;;5013771;28;20020;-83
2022/12/26 13:14:10;;;;;;;;;;;10.40;90.10;;;;;;5013983;28;19906;-83
2022/12/26 13:16:42;;;;;;;;;;;10.40;90.70;;;;;;5014133;28;20350;-83
2022/12/26 13:19:30;;;;;;;;;;;10.40;91.00;;;;;;5014353;28;19912;-83
2022/12/26 13:21:59;;;;;;;;;;;10.50;91.30;;;;;;5010572;28;20341;-83
2022/12/26 13:24:30;;;;;;;;;;;10.60;91.10;;;;;;5015498;28;19981;-84
2022/12/26 13:27:03;;;;;;;;;;;10.60;90.10;;;;;;5014007;28;19917;-83
2022/12/26 13:29:35;;;;;;;;;;;10.60;89.70;;;;;;5030359;28;19914;-83
2022/12/26 13:32:03;;;;;;;;;;;10.70;89.80;;;;;;5015451;28;19910;-83
2022/12/26 13:34:29;;;;;;;;;;;10.70;86.70;;;;;;5014115;28;19906;-83
2022/12/26 13:36:56;;;;;;;;;;;10.80;85.70;;;;;;5013785;28;19909;-82
2022/12/26 13:39:24;;;;;;;;;;;10.80;83.60;;;;;;5015483;28;19906;-83
2022/12/26 13:44:37;;;;;;;;;;;10.80;81.50;;;;;;5015108;28;20376;-83
2022/12/26 13:47:03;;;;;;;;;;;10.80;79.60;;;;;;5013726;28;19918;-83
2022/12/26 13:49:37;;;;;;;;;;;10.60;79.40;;;;;;5014753;28;19913;-83
2022/12/26 13:52:09;;;;;;;;;;;10.50;78.00;;;;;;5029836;28;20000;-83
2022/12/26 13:54:35;;;;;;;;;;;10.40;78.60;;;;;;5014604;28;19905;-83
2022/12/26 13:57:00;;;;;;;;;;;10.20;79.10;;;;;;5013451;28;19909;-83
2022/12/26 13:59:37;;;;;;;;;;;10.20;78.90;;;;;;5014454;28;19906;-83
2022/12/26 14:02:20;;;;;;;;;;;10.00;78.60;;;;;;5013297;28;19932;-82
2022/12/26 14:05:10;;;;;;;;;;;9.90;79.50;;;;;;5013357;28;19905;-83
2022/12/26 14:08:11;;;;;;;;;;;9.70;79.60;;;;;;5015013;28;19913;-83
2022/12/26 14:10:41;;;;;;;;;;;9.70;80.60;;;;;;5012381;28;19906;-83
2022/12/26 14:13:26;;;;;;;;;;;9.60;80.60;;;;;;5014789;28;19905;-82
2022/12/26 14:16:11;;;;;;;;;;;9.50;80.80;;;;;;5012916;28;19905;-83
2022/12/26 14:18:43;;;;;;;;;;;9.50;81.00;;;;;;5013430;28;20393;-83
2022/12/26 14:21:32;;;;;;;;;;;9.40;81.50;;;;;;5012666;28;20342;-83
2022/12/26 14:24:02;;;;;;;;;;;9.40;81.80;;;;;;5012952;28;19948;-82
2022/12/26 14:26:30;;;;;;;;;;;9.30;82.10;;;;;;5013249;28;20006;-83
2022/12/26 14:29:01;;;;;;;;;;;9.20;82.00;;;;;;5013026;28;19906;-83
2022/12/26 14:31:45;;;;;;;;;;;9.10;82.40;;;;;;5014226;28;19905;-83
2022/12/26 14:34:17;;;;;;;;;;;9.00;82.80;;;;;;5012852;28;20388;-82
2022/12/26 14:36:50;;;;;;;;;;;8.90;83.40;;;;;;5014478;28;19913;-82
2022/12/26 14:39:22;;;;;;;;;;;8.90;83.70;;;;;;5014154;28;19906;-82
2022/12/26 14:44:54;;;;;;;;;;;8.90;84.20;;;;;;5014106;28;20048;-83
2022/12/26 14:47:41;;;;;;;;;;;8.80;83.50;;;;;;5012850;28;19986;-82
2022/12/26 14:50:25;;;;;;;;;;;8.70;84.10;;;;;;5013866;28;19945;-82
2022/12/26 14:52:50;;;;;;;;;;;8.70;84.50;;;;;;5012832;28;19948;-83
2022/12/26 14:55:41;;;;;;;;;;;8.70;83.30;;;;;;5012111;28;19940;-83
2022/12/26 14:58:25;;;;;;;;;;;8.50;82.60;;;;;;5013113;28;19912;-82
2022/12/26 15:00:51;;;;;;;;;;;8.40;82.90;;;;;;5012961;28;20328;-83
2022/12/26 15:03:17;;;;;;;;;;;8.30;83.20;;;;;;5013939;28;20338;-82
2022/12/26 15:05:44;;;;;;;;;;;8.30;83.50;;;;;;5012947;28;19929;-81
2022/12/26 15:08:12;;;;;;;;;;;8.20;84.10;;;;;;5013811;28;19913;-82
2022/12/26 15:10:43;;;;;;;;;;;8.20;84.20;;;;;;5013956;28;19952;-83
2022/12/26 15:13:33;;;;;;;;;;;8.10;83.70;;;;;;5012181;28;19905;-82
2022/12/26 15:16:07;;;;;;;;;;;8.10;83.40;;;;;;5014227;28;19906;-82
2022/12/26 15:18:41;;;;;;;;;;;7.90;84.00;;;;;;5013461;28;19909;-82
2022/12/26 15:21:26;;;;;;;;;;;7.90;84.30;;;;;;5012634;28;19913;-82
2022/12/26 15:24:00;;;;;;;;;;;7.80;84.70;;;;;;5012425;28;19996;-82
2022/12/26 15:26:26;;;;;;;;;;;7.80;85.10;;;;;;5012010;28;19921;-82
2022/12/26 15:29:00;;;;;;;;;;;7.70;84.90;;;;;;5012126;28;19910;-81
2022/12/26 15:31:35;;;;;;;;;;;7.60;85.20;;;;;;5012582;28;19913;-82
2022/12/26 15:34:03;;;;;;;;;;;7.60;85.40;;;;;;5012391;28;19906;-83
2022/12/26 15:36:29;;;;;;;;;;;7.50;85.60;;;;;;5013251;28;20265;-83
2022/12/26 15:39:02;;;;;;;;;;;7.40;85.80;;;;;;5012463;28;19928;-83
2022/12/26 15:41:49;;;;;;;;;;;7.40;85.90;;;;;;5012315;28;20358;-82
2022/12/26 15:44:14;;;;;;;;;;;7.20;85.90;;;;;;5011984;28;19918;-83
2022/12/26 15:46:49;;;;;;;;;;;7.20;86.00;;;;;;5012039;28;19916;-83
2022/12/26 15:49:41;;;;;;;;;;;7.10;85.80;;;;;;5012164;28;19905;-83
2022/12/26 15:52:07;;;;;;;;;;;7.00;86.10;;;;;;5003792;28;19912;-83
2022/12/26 15:54:38;;;;;;;;;;;7.00;86.50;;;;;;5012222;28;19909;-83
2022/12/26 15:57:22;;;;;;;;;;;6.90;86.90;;;;;;5013331;28;19905;-82
2022/12/26 15:59:57;;;;;;;;;;;6.80;87.50;;;;;;5012473;28;19913;-83
2022/12/26 16:02:26;;;;;;;;;;;6.70;88.10;;;;;;5011902;28;19979;-82
2022/12/26 16:04:55;;;;;;;;;;;6.70;88.60;;;;;;5013490;28;19955;-83
2022/12/26 16:07:40;;;;;;;;;;;6.60;89.10;;;;;;5013987;28;20649;-83
2022/12/26 16:10:35;;;;;;;;;;;6.50;89.30;;;;;;5015512;28;20257;-83
2022/12/26 16:13:13;;;;;;;;;;;6.40;89.70;;;;;;5015146;28;19928;-83
2022/12/26 16:15:55;;;;;;;;;;;6.40;90.00;;;;;;5015702;28;19941;-83
2022/12/26 16:18:24;;;;;;;;;;;6.30;90.20;;;;;;5015817;28;20285;-83
2022/12/26 16:23:36;;;;;;;;;;;6.20;90.40;;;;;;5016981;28;20352;-84
2022/12/26 16:26:02;;;;;;;;;;;6.10;90.40;;;;;;5016513;28;19906;-84
2022/12/26 16:28:35;;;;;;;;;;;6.10;90.50;;;;;;5014896;28;19925;-84
2022/12/26 16:31:02;;;;;;;;;;;6.00;90.50;;;;;;5016704;28;20357;-83
2022/12/26 16:33:33;;;;;;;;;;;5.90;90.50;;;;;;5015647;28;19912;-83
2022/12/26 16:35:59;;;;;;;;;;;5.90;90.50;;;;;;5016209;28;20264;-84
2022/12/26 16:38:28;;;;;;;;;;;5.80;90.50;;;;;;5014900;28;20016;-83